Share

Pago Pago, AS

Bradshaw Army Air Field (PHSF) Elev 6191 ft | 19.76 °N, 155.55 °W | Change Station

Current weather conditions updated 11 minutes ago

Partly Cloudy
Partly Cloudy
66 °F
Feels Like 66 °F
N
16
Wind Variable Wind from SSE
Gusts 24 mph
Sunrise 6:29 AM
Sunset 6:14 PM
Moon Waning Gibbous

Today is forecast to be nearly the same temperature as yesterday.

Pressure 30.37 in
Visibility 4.0 miles
Clouds Few 17000 ft
Dew Point 48 °F
Humidity 52%
Rainfall 0.00 in
Snow Depth Not available.
UV 13 out of 16
Pollen Not available.
Air Quality Not available.
Flu Activity
SPECI PHSF 172216Z AUTO 16014G21KT 4SM FEW170 19/09 A3037 RMK AO2

More Conditions Fewer Conditions

Pressure 30.37 in
Visibility 4.0 miles
Clouds Few 17000 ft
Dew Point 48 °F
Humidity 52%
Rainfall 0.00 in
Snow Depth Not available.
UV 13 out of 16
Pollen Not available.
Air Quality Not available.
Flu Activity
SPECI PHSF 172216Z AUTO 16014G21KT 4SM FEW170 19/09 A3037 RMK AO2

More Conditions Fewer Conditions

10-Day Forecast

Almanac

Astronomy

Apr. 17, 2014 Rise Set
Actual Time 6:29 AM SST 6:14 PM SST
Civil Twilight 6:08 AM SST 6:36 PM SST
Nautical Twilight 5:43 AM SST 7:01 PM SST
Astronomical Twilight 5:18 AM SST 7:26 PM SST
Moon 8:36 PM SST 8:46 AM SST
Length of Visible Light 12h 28m
Length of Day
11h 44m
Tomorrow will be 0m 43s shorter.
Waning Gibbous, 92% of the Moon is Illuminated
Today
Waning Gibbous
Apr 22
Last Quarter
Apr 29
New
May 6
First Quarter
May 14
Full

Community

  • Morning Light
    Morning Light
  • New Day
    New Day
  • Lake Michigan Sunrise
    Lake Michigan Sunrise
  • sunset from izmir, narlıdere
    sunset from izmir, narlıdere
  • oregon cherry
    oregon cherry

WunderPhotos

Upload Photos

1,702,154 photos uploaded!

Nearby

Snow Depth

Station Depth Elevation
No new snow has been reported.

Coastal Water Temperatures

Place Temperature
No Stations Reporting

Earthquake Activity

City Distance Mag. Time & Date
No recent earthquake activity has been reported nearby.
Minimum magnitude displayed is 2.5.

Nearby Weather Stations

There are no personal weather stations in this area.

What do you think?

We're not finished. Please let us know what you like, what you don't like, and what you are still missing.